Aerosoft official retail partner for Microsoft Flight Simulator !! 
Click here for more information

Jump to content

Recommended Posts

Hi

 

i have just done an autoland into LPPT where the weather was  LPPT 070030Z 22006KT 4000 BR SCT001 BKN002 16/16 Q1019 (decreasing to become LPPT 070130Z 23006KT 0600 R21/P2000 PRFG SCT000 BKN001 16/16 Q1019) and looking at the after landing report it showed as ...513 FPM .. Seems very hard to me and it set off the printer when i left the runway so i knew it was a hard one . ... The load i used and the report are below.

 

Thanks

Rich

wx.jpg

wx 2.jpg

Share this post


Link to post
Share on other sites

This is not easy to answer, but yes Autoland can be hard, harder then manual landing. As frequent traveller in th last years I experienced only 2 autolands (they where announced by the cockpit crew).

- bothe were SAS

- in EHAM with a CRJ 900 was very smoth

- in ENGM with a 737, was quite hard.

From our RL pilots I heard that indeed Autoland can be harder. But it depends of course from the circumstances, e.g. how close it was to the limits for autolands for a specific aircraft.

Within our product range, I experienced that the autoland with the A330 is smoother then with the smaller Buses, so it might also depend on the aircraft and its characteristics.

But smooth manual landings always depend on the pilot skills. ;)

  • Like 1

Share this post


Link to post
Share on other sites

Thanks for that , would it set off the landing G report just after touchdown in the real Airbus? 500+ fpm does seem excessive ..maybe a slight tweak to auto land flare could be done if its possible. 

Take care and stay safe 

Share this post


Link to post
Share on other sites

Do you have activesky? I did 5 autolands and they all suckered from 500fpm to 600fpm with just like 2knots of variable winds. I noticed at flare mode the plane was nosing down  up a lot but the pitch was low litch of 2.5. Believe A330 requires a final flare of 5 to 7.5 pitch up for proper touchdown.

 

I so far only had 1 good autoland with 82fpm with direct 5knot headwind but this was months ago probably on an older versions of Aerosofts a330.

Share this post


Link to post
Share on other sites

I hardly use the autoland and wouldn't try it anytime soon due to previous bad experience. It is as if the aircraft is not even trying to flare at all. And the response from the support team is--it's normal.

Share this post


Link to post
Share on other sites

Well, just check YT videos, nearly all I see are automatic and I personally have not done a manual landing in months.

 

Share this post


Link to post
Share on other sites

Create an account or sign in to comment

You need to be a member in order to leave a comment

Create an account

Sign up for a new account in our community. It's easy!

Register a new account

Sign in

Already have an account? Sign in here.

Sign In Now

×
×
  • Create New...